sensor_id;sensor_type;location;lat;lon;timestamp;P1;durP1;ratioP1;P2;durP2;ratioP2
79143;SDS011;68551;47.484;19.092;2023-04-07T00:02:31;17.63;;;12.48;;
79143;SDS011;68551;47.484;19.092;2023-04-07T00:05:43;17.88;;;11.50;;
79143;SDS011;68551;47.484;19.092;2023-04-07T00:08:48;20.27;;;12.02;;
79143;SDS011;68551;47.484;19.092;2023-04-07T00:11:50;20.17;;;12.35;;
79143;SDS011;68551;47.484;19.092;2023-04-07T00:14:53;17.95;;;12.02;;
79143;SDS011;68551;47.484;19.092;2023-04-07T00:17:57;19.02;;;11.68;;
79143;SDS011;68551;47.484;19.092;2023-04-07T00:21:02;18.15;;;12.30;;
79143;SDS011;68551;47.484;19.092;2023-04-07T00:24:05;22.42;;;13.45;;
79143;SDS011;68551;47.484;19.092;2023-04-07T00:27:07;19.13;;;12.57;;
79143;SDS011;68551;47.484;19.092;2023-04-07T00:30:14;18.55;;;12.93;;
79143;SDS011;68551;47.484;19.092;2023-04-07T00:33:19;19.90;;;14.05;;
79143;SDS011;68551;47.484;19.092;2023-04-07T00:36:22;18.02;;;13.07;;
79143;SDS011;68551;47.484;19.092;2023-04-07T00:39:27;21.83;;;13.75;;
79143;SDS011;68551;47.484;19.092;2023-04-07T00:42:29;17.88;;;12.07;;
79143;SDS011;68551;47.484;19.092;2023-04-07T00:45:35;19.65;;;13.43;;
79143;SDS011;68551;47.484;19.092;2023-04-07T00:48:40;19.92;;;13.27;;
79143;SDS011;68551;47.484;19.092;2023-04-07T00:51:47;17.42;;;12.30;;
79143;SDS011;68551;47.484;19.092;2023-04-07T00:54:54;18.23;;;12.93;;
79143;SDS011;68551;47.484;19.092;2023-04-07T00:57:59;19.90;;;13.57;;
79143;SDS011;68551;47.484;19.092;2023-04-07T01:01:08;19.95;;;12.73;;
79143;SDS011;68551;47.484;19.092;2023-04-07T01:04:25;16.42;;;11.88;;
79143;SDS011;68551;47.484;19.092;2023-04-07T01:14:57;19.95;;;13.30;;
79143;SDS011;68551;47.484;19.092;2023-04-07T01:18:23;20.08;;;12.85;;
79143;SDS011;68551;47.484;19.092;2023-04-07T01:21:32;18.80;;;12.88;;
79143;SDS011;68551;47.484;19.092;2023-04-07T01:31:30;18.25;;;12.73;;
79143;SDS011;68551;47.484;19.092;2023-04-07T01:34:36;21.00;;;13.25;;
79143;SDS011;68551;47.484;19.092;2023-04-07T01:37:39;19.10;;;12.77;;
79143;SDS011;68551;47.484;19.092;2023-04-07T01:40:46;18.92;;;14.10;;
79143;SDS011;68551;47.484;19.092;2023-04-07T01:43:55;20.05;;;13.55;;
79143;SDS011;68551;47.484;19.092;2023-04-07T01:50:08;19.77;;;13.07;;
79143;SDS011;68551;47.484;19.092;2023-04-07T01:53:15;17.83;;;13.35;;
79143;SDS011;68551;47.484;19.092;2023-04-07T01:56:18;21.25;;;13.50;;
79143;SDS011;68551;47.484;19.092;2023-04-07T01:59:25;20.75;;;13.30;;
79143;SDS011;68551;47.484;19.092;2023-04-07T02:02:35;20.67;;;13.00;;
79143;SDS011;68551;47.484;19.092;2023-04-07T02:05:46;21.55;;;13.57;;
79143;SDS011;68551;47.484;19.092;2023-04-07T02:08:51;19.13;;;13.00;;
79143;SDS011;68551;47.484;19.092;2023-04-07T02:12:00;21.75;;;14.40;;
79143;SDS011;68551;47.484;19.092;2023-04-07T02:15:12;21.25;;;13.65;;
79143;SDS011;68551;47.484;19.092;2023-04-07T02:18:20;20.05;;;13.27;;
79143;SDS011;68551;47.484;19.092;2023-04-07T02:21:26;26.33;;;15.10;;
79143;SDS011;68551;47.484;19.092;2023-04-07T02:24:31;22.63;;;13.55;;
79143;SDS011;68551;47.484;19.092;2023-04-07T02:27:33;21.13;;;13.30;;
79143;SDS011;68551;47.484;19.092;2023-04-07T02:30:38;20.45;;;12.98;;
79143;SDS011;68551;47.484;19.092;2023-04-07T02:33:41;23.92;;;14.60;;
79143;SDS011;68551;47.484;19.092;2023-04-07T02:36:45;21.60;;;14.32;;
79143;SDS011;68551;47.484;19.092;2023-04-07T02:39:48;20.42;;;14.40;;
79143;SDS011;68551;47.484;19.092;2023-04-07T02:42:54;22.63;;;14.40;;
79143;SDS011;68551;47.484;19.092;2023-04-07T02:45:56;22.17;;;14.35;;
79143;SDS011;68551;47.484;19.092;2023-04-07T02:49:01;20.27;;;13.65;;
79143;SDS011;68551;47.484;19.092;2023-04-07T02:52:06;19.58;;;11.93;;
79143;SDS011;68551;47.484;19.092;2023-04-07T02:55:13;16.83;;;11.80;;
79143;SDS011;68551;47.484;19.092;2023-04-07T02:58:16;17.60;;;12.00;;
79143;SDS011;68551;47.484;19.092;2023-04-07T03:01:18;18.00;;;12.15;;
79143;SDS011;68551;47.484;19.092;2023-04-07T03:04:24;17.92;;;12.23;;
79143;SDS011;68551;47.484;19.092;2023-04-07T03:07:29;15.75;;;11.82;;
79143;SDS011;68551;47.484;19.092;2023-04-07T03:10:34;16.17;;;11.70;;
79143;SDS011;68551;47.484;19.092;2023-04-07T03:13:37;17.73;;;12.20;;
79143;SDS011;68551;47.484;19.092;2023-04-07T03:16:40;17.95;;;12.40;;
79143;SDS011;68551;47.484;19.092;2023-04-07T03:19:50;16.63;;;12.05;;
79143;SDS011;68551;47.484;19.092;2023-04-07T03:22:54;16.50;;;11.63;;
79143;SDS011;68551;47.484;19.092;2023-04-07T03:26:00;14.88;;;12.18;;
79143;SDS011;68551;47.484;19.092;2023-04-07T03:29:07;16.95;;;11.77;;
79143;SDS011;68551;47.484;19.092;2023-04-07T03:32:10;17.60;;;11.95;;
79143;SDS011;68551;47.484;19.092;2023-04-07T03:35:12;16.10;;;12.10;;
79143;SDS011;68551;47.484;19.092;2023-04-07T03:38:19;18.52;;;12.65;;
79143;SDS011;68551;47.484;19.092;2023-04-07T03:41:29;18.90;;;12.15;;
79143;SDS011;68551;47.484;19.092;2023-04-07T03:44:31;18.88;;;12.73;;
79143;SDS011;68551;47.484;19.092;2023-04-07T03:47:34;16.30;;;11.85;;
79143;SDS011;68551;47.484;19.092;2023-04-07T03:53:47;15.40;;;10.90;;
79143;SDS011;68551;47.484;19.092;2023-04-07T03:57:05;18.92;;;12.52;;
79143;SDS011;68551;47.484;19.092;2023-04-07T04:00:17;19.40;;;11.90;;
79143;SDS011;68551;47.484;19.092;2023-04-07T04:03:34;15.40;;;11.30;;
79143;SDS011;68551;47.484;19.092;2023-04-07T04:06:58;19.73;;;12.55;;
79143;SDS011;68551;47.484;19.092;2023-04-07T04:10:13;17.42;;;12.18;;
79143;SDS011;68551;47.484;19.092;2023-04-07T04:13:23;16.67;;;12.00;;
79143;SDS011;68551;47.484;19.092;2023-04-07T04:16:26;17.35;;;11.68;;
79143;SDS011;68551;47.484;19.092;2023-04-07T04:19:32;16.45;;;12.00;;
79143;SDS011;68551;47.484;19.092;2023-04-07T04:22:45;18.00;;;12.07;;
79143;SDS011;68551;47.484;19.092;2023-04-07T04:25:59;16.13;;;10.77;;
79143;SDS011;68551;47.484;19.092;2023-04-07T04:29:06;17.25;;;11.85;;
79143;SDS011;68551;47.484;19.092;2023-04-07T04:32:13;15.65;;;11.60;;
79143;SDS011;68551;47.484;19.092;2023-04-07T04:35:18;16.02;;;12.57;;
79143;SDS011;68551;47.484;19.092;2023-04-07T04:38:40;17.80;;;12.32;;
79143;SDS011;68551;47.484;19.092;2023-04-07T04:41:51;15.75;;;12.38;;
79143;SDS011;68551;47.484;19.092;2023-04-07T04:45:05;21.23;;;12.60;;
79143;SDS011;68551;47.484;19.092;2023-04-07T04:48:11;18.25;;;12.25;;
79143;SDS011;68551;47.484;19.092;2023-04-07T04:51:14;17.55;;;12.88;;
79143;SDS011;68551;47.484;19.092;2023-04-07T04:54:23;23.63;;;12.98;;
79143;SDS011;68551;47.484;19.092;2023-04-07T04:57:34;18.05;;;11.80;;
79143;SDS011;68551;47.484;19.092;2023-04-07T05:00:41;21.50;;;13.25;;
79143;SDS011;68551;47.484;19.092;2023-04-07T05:03:48;18.25;;;12.45;;
79143;SDS011;68551;47.484;19.092;2023-04-07T05:06:58;20.52;;;12.23;;
79143;SDS011;68551;47.484;19.092;2023-04-07T05:10:03;20.17;;;13.30;;
79143;SDS011;68551;47.484;19.092;2023-04-07T05:13:10;18.45;;;12.20;;
79143;SDS011;68551;47.484;19.092;2023-04-07T05:16:17;19.13;;;13.30;;
79143;SDS011;68551;47.484;19.092;2023-04-07T05:19:25;17.00;;;12.65;;
79143;SDS011;68551;47.484;19.092;2023-04-07T05:22:35;18.67;;;12.20;;
79143;SDS011;68551;47.484;19.092;2023-04-07T05:25:40;18.13;;;11.80;;
79143;SDS011;68551;47.484;19.092;2023-04-07T05:28:43;16.85;;;12.43;;
79143;SDS011;68551;47.484;19.092;2023-04-07T05:31:52;18.60;;;12.93;;
79143;SDS011;68551;47.484;19.092;2023-04-07T05:35:00;19.83;;;13.63;;
79143;SDS011;68551;47.484;19.092;2023-04-07T05:38:10;18.45;;;11.73;;
79143;SDS011;68551;47.484;19.092;2023-04-07T05:41:13;20.02;;;12.68;;
79143;SDS011;68551;47.484;19.092;2023-04-07T05:44:17;19.95;;;12.90;;
79143;SDS011;68551;47.484;19.092;2023-04-07T05:47:22;19.23;;;12.30;;
79143;SDS011;68551;47.484;19.092;2023-04-07T05:50:25;19.13;;;12.88;;
79143;SDS011;68551;47.484;19.092;2023-04-07T05:53:32;20.08;;;13.27;;
79143;SDS011;68551;47.484;19.092;2023-04-07T05:56:35;19.60;;;13.70;;
79143;SDS011;68551;47.484;19.092;2023-04-07T05:59:41;19.25;;;12.48;;
79143;SDS011;68551;47.484;19.092;2023-04-07T06:02:46;21.02;;;13.25;;
79143;SDS011;68551;47.484;19.092;2023-04-07T06:05:55;19.65;;;12.95;;
79143;SDS011;68551;47.484;19.092;2023-04-07T06:09:02;19.10;;;13.50;;
79143;SDS011;68551;47.484;19.092;2023-04-07T06:12:06;18.95;;;12.85;;
79143;SDS011;68551;47.484;19.092;2023-04-07T06:15:10;19.10;;;13.10;;
79143;SDS011;68551;47.484;19.092;2023-04-07T06:18:14;19.30;;;13.75;;
79143;SDS011;68551;47.484;19.092;2023-04-07T06:21:20;19.80;;;12.75;;
79143;SDS011;68551;47.484;19.092;2023-04-07T06:24:28;20.27;;;13.05;;
79143;SDS011;68551;47.484;19.092;2023-04-07T06:27:30;20.73;;;12.90;;
79143;SDS011;68551;47.484;19.092;2023-04-07T06:30:34;18.58;;;12.10;;
79143;SDS011;68551;47.484;19.092;2023-04-07T06:33:38;16.67;;;12.68;;
79143;SDS011;68551;47.484;19.092;2023-04-07T06:36:40;18.77;;;12.93;;
79143;SDS011;68551;47.484;19.092;2023-04-07T06:39:47;21.52;;;13.02;;
79143;SDS011;68551;47.484;19.092;2023-04-07T06:42:50;19.67;;;12.65;;
79143;SDS011;68551;47.484;19.092;2023-04-07T06:46:04;22.00;;;13.35;;
79143;SDS011;68551;47.484;19.092;2023-04-07T06:49:09;22.75;;;14.43;;
79143;SDS011;68551;47.484;19.092;2023-04-07T06:52:11;20.90;;;13.48;;
79143;SDS011;68551;47.484;19.092;2023-04-07T06:55:13;20.38;;;14.32;;
79143;SDS011;68551;47.484;19.092;2023-04-07T06:58:16;23.45;;;13.48;;
79143;SDS011;68551;47.484;19.092;2023-04-07T07:01:20;21.33;;;14.02;;
79143;SDS011;68551;47.484;19.092;2023-04-07T07:04:25;19.98;;;13.20;;
79143;SDS011;68551;47.484;19.092;2023-04-07T07:07:30;18.35;;;12.40;;
79143;SDS011;68551;47.484;19.092;2023-04-07T07:10:34;18.05;;;13.25;;
79143;SDS011;68551;47.484;19.092;2023-04-07T07:13:37;21.08;;;14.10;;
79143;SDS011;68551;47.484;19.092;2023-04-07T07:16:39;22.40;;;14.20;;
79143;SDS011;68551;47.484;19.092;2023-04-07T07:19:42;20.75;;;14.25;;
79143;SDS011;68551;47.484;19.092;2023-04-07T07:22:44;18.75;;;13.70;;
79143;SDS011;68551;47.484;19.092;2023-04-07T07:25:46;19.80;;;13.77;;
79143;SDS011;68551;47.484;19.092;2023-04-07T07:28:49;20.35;;;13.07;;
79143;SDS011;68551;47.484;19.092;2023-04-07T07:31:51;20.20;;;13.30;;
79143;SDS011;68551;47.484;19.092;2023-04-07T07:34:59;20.52;;;13.55;;
79143;SDS011;68551;47.484;19.092;2023-04-07T07:38:05;21.85;;;13.27;;
79143;SDS011;68551;47.484;19.092;2023-04-07T07:41:07;22.77;;;13.20;;
79143;SDS011;68551;47.484;19.092;2023-04-07T07:44:14;21.88;;;13.13;;
79143;SDS011;68551;47.484;19.092;2023-04-07T07:47:19;21.33;;;13.45;;
79143;SDS011;68551;47.484;19.092;2023-04-07T07:50:21;20.02;;;13.35;;
79143;SDS011;68551;47.484;19.092;2023-04-07T07:53:24;19.50;;;13.80;;
79143;SDS011;68551;47.484;19.092;2023-04-07T07:56:26;23.20;;;13.68;;
79143;SDS011;68551;47.484;19.092;2023-04-07T07:59:34;20.42;;;13.90;;
79143;SDS011;68551;47.484;19.092;2023-04-07T08:02:41;18.98;;;13.77;;
79143;SDS011;68551;47.484;19.092;2023-04-07T08:05:46;24.80;;;14.48;;
79143;SDS011;68551;47.484;19.092;2023-04-07T08:08:49;21.70;;;13.60;;
79143;SDS011;68551;47.484;19.092;2023-04-07T08:11:52;17.63;;;13.30;;
79143;SDS011;68551;47.484;19.092;2023-04-07T08:15:01;22.10;;;14.68;;
79143;SDS011;68551;47.484;19.092;2023-04-07T08:18:04;22.55;;;14.02;;
79143;SDS011;68551;47.484;19.092;2023-04-07T08:21:09;23.70;;;14.68;;
79143;SDS011;68551;47.484;19.092;2023-04-07T08:24:17;20.77;;;14.68;;
79143;SDS011;68551;47.484;19.092;2023-04-07T08:27:21;20.20;;;13.43;;
79143;SDS011;68551;47.484;19.092;2023-04-07T08:30:24;22.55;;;14.98;;
79143;SDS011;68551;47.484;19.092;2023-04-07T08:33:32;23.38;;;16.23;;
79143;SDS011;68551;47.484;19.092;2023-04-07T08:36:36;20.88;;;14.48;;
79143;SDS011;68551;47.484;19.092;2023-04-07T08:39:45;21.58;;;15.40;;
79143;SDS011;68551;47.484;19.092;2023-04-07T08:42:47;22.17;;;15.02;;
79143;SDS011;68551;47.484;19.092;2023-04-07T08:45:52;25.17;;;15.55;;
79143;SDS011;68551;47.484;19.092;2023-04-07T08:48:58;23.20;;;16.10;;
79143;SDS011;68551;47.484;19.092;2023-04-07T08:52:05;21.13;;;14.73;;
79143;SDS011;68551;47.484;19.092;2023-04-07T08:55:11;23.10;;;16.70;;
79143;SDS011;68551;47.484;19.092;2023-04-07T08:58:14;24.88;;;15.30;;
79143;SDS011;68551;47.484;19.092;2023-04-07T09:01:19;24.90;;;14.70;;
79143;SDS011;68551;47.484;19.092;2023-04-07T09:04:24;21.55;;;15.43;;
79143;SDS011;68551;47.484;19.092;2023-04-07T09:07:31;22.75;;;14.98;;
79143;SDS011;68551;47.484;19.092;2023-04-07T09:10:35;19.38;;;13.60;;
79143;SDS011;68551;47.484;19.092;2023-04-07T09:13:38;25.02;;;14.90;;
79143;SDS011;68551;47.484;19.092;2023-04-07T09:16:40;20.48;;;13.18;;
79143;SDS011;68551;47.484;19.092;2023-04-07T09:19:43;16.45;;;12.63;;
79143;SDS011;68551;47.484;19.092;2023-04-07T09:22:45;17.98;;;13.70;;
79143;SDS011;68551;47.484;19.092;2023-04-07T09:25:49;18.02;;;12.48;;
79143;SDS011;68551;47.484;19.092;2023-04-07T09:31:59;19.63;;;13.55;;
79143;SDS011;68551;47.484;19.092;2023-04-07T09:35:06;19.67;;;14.20;;
79143;SDS011;68551;47.484;19.092;2023-04-07T09:38:09;20.17;;;13.60;;
79143;SDS011;68551;47.484;19.092;2023-04-07T09:41:12;17.88;;;12.82;;
79143;SDS011;68551;47.484;19.092;2023-04-07T09:44:21;21.10;;;14.25;;
79143;SDS011;68551;47.484;19.092;2023-04-07T09:47:31;18.65;;;14.10;;
79143;SDS011;68551;47.484;19.092;2023-04-07T09:50:38;18.33;;;12.93;;
79143;SDS011;68551;47.484;19.092;2023-04-07T09:53:47;20.00;;;13.40;;
79143;SDS011;68551;47.484;19.092;2023-04-07T09:56:56;20.98;;;14.85;;
79143;SDS011;68551;47.484;19.092;2023-04-07T09:59:59;17.38;;;13.02;;
79143;SDS011;68551;47.484;19.092;2023-04-07T10:06:10;18.17;;;11.43;;
79143;SDS011;68551;47.484;19.092;2023-04-07T10:09:13;21.70;;;14.00;;
79143;SDS011;68551;47.484;19.092;2023-04-07T10:12:16;23.55;;;13.95;;
79143;SDS011;68551;47.484;19.092;2023-04-07T10:15:19;19.10;;;13.10;;
79143;SDS011;68551;47.484;19.092;2023-04-07T10:18:22;20.60;;;13.93;;
79143;SDS011;68551;47.484;19.092;2023-04-07T10:21:36;21.30;;;13.07;;
79143;SDS011;68551;47.484;19.092;2023-04-07T10:24:58;17.58;;;13.02;;
79143;SDS011;68551;47.484;19.092;2023-04-07T10:28:07;16.92;;;13.45;;
79143;SDS011;68551;47.484;19.092;2023-04-07T10:31:15;19.90;;;13.00;;
79143;SDS011;68551;47.484;19.092;2023-04-07T10:41:32;22.65;;;15.07;;
79143;SDS011;68551;47.484;19.092;2023-04-07T10:54:16;19.25;;;13.35;;
79143;SDS011;68551;47.484;19.092;2023-04-07T10:57:19;21.05;;;13.23;;
79143;SDS011;68551;47.484;19.092;2023-04-07T11:00:22;21.80;;;14.07;;
79143;SDS011;68551;47.484;19.092;2023-04-07T11:03:24;23.25;;;14.75;;
79143;SDS011;68551;47.484;19.092;2023-04-07T11:06:31;16.73;;;12.93;;
79143;SDS011;68551;47.484;19.092;2023-04-07T11:09:33;18.45;;;13.63;;
79143;SDS011;68551;47.484;19.092;2023-04-07T11:12:36;19.88;;;13.85;;
79143;SDS011;68551;47.484;19.092;2023-04-07T11:15:40;18.52;;;13.80;;
79143;SDS011;68551;47.484;19.092;2023-04-07T11:18:45;21.95;;;14.00;;
79143;SDS011;68551;47.484;19.092;2023-04-07T11:22:12;20.33;;;13.80;;
79143;SDS011;68551;47.484;19.092;2023-04-07T11:25:25;19.10;;;13.98;;
79143;SDS011;68551;47.484;19.092;2023-04-07T11:28:31;19.25;;;13.50;;
79143;SDS011;68551;47.484;19.092;2023-04-07T11:31:36;18.67;;;14.35;;
79143;SDS011;68551;47.484;19.092;2023-04-07T11:34:39;18.55;;;13.63;;
79143;SDS011;68551;47.484;19.092;2023-04-07T11:37:47;20.55;;;13.38;;
79143;SDS011;68551;47.484;19.092;2023-04-07T11:40:49;20.38;;;13.63;;
79143;SDS011;68551;47.484;19.092;2023-04-07T11:44:10;20.77;;;14.55;;
79143;SDS011;68551;47.484;19.092;2023-04-07T11:47:15;18.73;;;13.43;;
79143;SDS011;68551;47.484;19.092;2023-04-07T11:50:36;21.00;;;14.15;;
79143;SDS011;68551;47.484;19.092;2023-04-07T11:53:40;20.23;;;14.10;;
79143;SDS011;68551;47.484;19.092;2023-04-07T11:56:45;20.23;;;14.90;;
79143;SDS011;68551;47.484;19.092;2023-04-07T11:59:48;19.50;;;13.88;;
79143;SDS011;68551;47.484;19.092;2023-04-07T12:03:09;22.73;;;14.95;;
79143;SDS011;68551;47.484;19.092;2023-04-07T12:06:25;21.17;;;15.07;;
79143;SDS011;68551;47.484;19.092;2023-04-07T12:09:32;20.30;;;13.25;;
79143;SDS011;68551;47.484;19.092;2023-04-07T12:12:38;21.45;;;14.07;;
79143;SDS011;68551;47.484;19.092;2023-04-07T12:15:49;21.38;;;14.93;;
79143;SDS011;68551;47.484;19.092;2023-04-07T12:18:51;22.70;;;14.63;;
79143;SDS011;68551;47.484;19.092;2023-04-07T12:21:54;24.00;;;15.18;;
79143;SDS011;68551;47.484;19.092;2023-04-07T12:24:57;20.83;;;13.88;;
79143;SDS011;68551;47.484;19.092;2023-04-07T12:28:02;20.25;;;14.27;;
79143;SDS011;68551;47.484;19.092;2023-04-07T12:31:04;24.17;;;15.32;;
79143;SDS011;68551;47.484;19.092;2023-04-07T12:34:07;21.35;;;15.52;;
79143;SDS011;68551;47.484;19.092;2023-04-07T12:37:11;25.58;;;15.55;;
79143;SDS011;68551;47.484;19.092;2023-04-07T12:40:13;23.20;;;15.15;;
79143;SDS011;68551;47.484;19.092;2023-04-07T12:43:17;20.52;;;14.57;;
79143;SDS011;68551;47.484;19.092;2023-04-07T12:46:19;22.88;;;15.18;;
79143;SDS011;68551;47.484;19.092;2023-04-07T12:49:22;23.35;;;15.93;;
79143;SDS011;68551;47.484;19.092;2023-04-07T12:52:27;20.65;;;14.02;;
79143;SDS011;68551;47.484;19.092;2023-04-07T12:55:29;20.25;;;14.73;;
79143;SDS011;68551;47.484;19.092;2023-04-07T12:58:36;24.58;;;16.33;;
79143;SDS011;68551;47.484;19.092;2023-04-07T13:01:38;22.30;;;15.63;;
79143;SDS011;68551;47.484;19.092;2023-04-07T13:04:49;25.60;;;16.67;;
79143;SDS011;68551;47.484;19.092;2023-04-07T13:07:52;21.38;;;15.32;;
79143;SDS011;68551;47.484;19.092;2023-04-07T13:10:54;20.85;;;14.90;;
79143;SDS011;68551;47.484;19.092;2023-04-07T13:13:57;22.23;;;15.30;;
79143;SDS011;68551;47.484;19.092;2023-04-07T13:17:04;22.27;;;15.63;;
79143;SDS011;68551;47.484;19.092;2023-04-07T13:20:09;24.25;;;16.05;;
79143;SDS011;68551;47.484;19.092;2023-04-07T13:23:17;23.30;;;15.77;;
79143;SDS011;68551;47.484;19.092;2023-04-07T13:26:22;22.52;;;16.00;;
79143;SDS011;68551;47.484;19.092;2023-04-07T13:29:30;23.70;;;16.80;;
79143;SDS011;68551;47.484;19.092;2023-04-07T13:32:33;23.10;;;16.58;;
79143;SDS011;68551;47.484;19.092;2023-04-07T13:35:36;22.65;;;15.38;;
79143;SDS011;68551;47.484;19.092;2023-04-07T13:38:40;24.20;;;15.93;;
79143;SDS011;68551;47.484;19.092;2023-04-07T13:41:43;22.02;;;15.32;;
79143;SDS011;68551;47.484;19.092;2023-04-07T13:44:45;23.60;;;16.05;;
79143;SDS011;68551;47.484;19.092;2023-04-07T13:47:51;24.85;;;16.27;;
79143;SDS011;68551;47.484;19.092;2023-04-07T13:50:57;22.20;;;14.70;;
79143;SDS011;68551;47.484;19.092;2023-04-07T13:54:02;22.75;;;15.10;;
79143;SDS011;68551;47.484;19.092;2023-04-07T13:57:05;22.38;;;15.10;;
79143;SDS011;68551;47.484;19.092;2023-04-07T14:00:09;23.02;;;15.63;;
79143;SDS011;68551;47.484;19.092;2023-04-07T14:03:15;22.90;;;15.50;;
79143;SDS011;68551;47.484;19.092;2023-04-07T14:06:18;22.90;;;15.55;;
79143;SDS011;68551;47.484;19.092;2023-04-07T14:09:23;22.50;;;16.40;;
79143;SDS011;68551;47.484;19.092;2023-04-07T14:12:26;22.27;;;16.20;;
79143;SDS011;68551;47.484;19.092;2023-04-07T14:15:28;25.00;;;17.10;;
79143;SDS011;68551;47.484;19.092;2023-04-07T14:18:35;22.10;;;15.95;;
79143;SDS011;68551;47.484;19.092;2023-04-07T14:21:38;23.48;;;16.58;;
79143;SDS011;68551;47.484;19.092;2023-04-07T14:24:40;22.85;;;16.40;;
79143;SDS011;68551;47.484;19.092;2023-04-07T14:27:42;24.98;;;15.60;;
79143;SDS011;68551;47.484;19.092;2023-04-07T14:30:45;24.15;;;15.57;;
79143;SDS011;68551;47.484;19.092;2023-04-07T14:33:48;25.95;;;16.15;;
79143;SDS011;68551;47.484;19.092;2023-04-07T14:36:51;24.45;;;16.75;;
79143;SDS011;68551;47.484;19.092;2023-04-07T14:39:59;24.45;;;16.17;;
79143;SDS011;68551;47.484;19.092;2023-04-07T14:43:07;28.15;;;16.92;;
79143;SDS011;68551;47.484;19.092;2023-04-07T14:46:13;26.10;;;16.00;;
79143;SDS011;68551;47.484;19.092;2023-04-07T14:49:16;25.80;;;15.55;;
79143;SDS011;68551;47.484;19.092;2023-04-07T14:52:18;25.50;;;16.55;;
79143;SDS011;68551;47.484;19.092;2023-04-07T14:55:23;23.95;;;16.33;;
79143;SDS011;68551;47.484;19.092;2023-04-07T14:58:27;23.60;;;15.80;;
79143;SDS011;68551;47.484;19.092;2023-04-07T15:01:29;28.02;;;17.33;;
79143;SDS011;68551;47.484;19.092;2023-04-07T15:04:36;24.50;;;16.63;;
79143;SDS011;68551;47.484;19.092;2023-04-07T15:07:39;26.13;;;16.70;;
79143;SDS011;68551;47.484;19.092;2023-04-07T15:10:46;28.42;;;17.38;;
79143;SDS011;68551;47.484;19.092;2023-04-07T15:13:51;26.15;;;17.13;;
79143;SDS011;68551;47.484;19.092;2023-04-07T15:16:56;26.33;;;17.08;;
79143;SDS011;68551;47.484;19.092;2023-04-07T15:20:01;27.15;;;18.55;;
79143;SDS011;68551;47.484;19.092;2023-04-07T15:23:08;24.63;;;16.10;;
79143;SDS011;68551;47.484;19.092;2023-04-07T15:26:11;28.25;;;17.67;;
79143;SDS011;68551;47.484;19.092;2023-04-07T15:29:13;27.15;;;17.67;;
79143;SDS011;68551;47.484;19.092;2023-04-07T15:32:16;26.67;;;17.42;;
79143;SDS011;68551;47.484;19.092;2023-04-07T15:35:18;26.13;;;17.38;;
79143;SDS011;68551;47.484;19.092;2023-04-07T15:38:20;27.42;;;19.10;;
79143;SDS011;68551;47.484;19.092;2023-04-07T15:41:22;29.42;;;17.60;;
79143;SDS011;68551;47.484;19.092;2023-04-07T15:44:27;31.23;;;17.85;;
79143;SDS011;68551;47.484;19.092;2023-04-07T15:47:40;25.95;;;17.15;;
79143;SDS011;68551;47.484;19.092;2023-04-07T15:50:45;29.02;;;18.40;;
79143;SDS011;68551;47.484;19.092;2023-04-07T15:53:47;27.15;;;17.05;;
79143;SDS011;68551;47.484;19.092;2023-04-07T15:56:52;28.90;;;18.58;;
79143;SDS011;68551;47.484;19.092;2023-04-07T15:59:59;25.90;;;17.25;;
79143;SDS011;68551;47.484;19.092;2023-04-07T16:03:02;26.98;;;16.95;;
79143;SDS011;68551;47.484;19.092;2023-04-07T16:06:04;28.30;;;17.42;;
79143;SDS011;68551;47.484;19.092;2023-04-07T16:09:09;26.80;;;16.88;;
79143;SDS011;68551;47.484;19.092;2023-04-07T16:12:13;27.13;;;18.02;;
79143;SDS011;68551;47.484;19.092;2023-04-07T16:15:17;26.98;;;17.52;;
79143;SDS011;68551;47.484;19.092;2023-04-07T16:18:39;24.80;;;15.75;;
79143;SDS011;68551;47.484;19.092;2023-04-07T16:21:44;25.83;;;16.48;;
79143;SDS011;68551;47.484;19.092;2023-04-07T16:24:46;26.02;;;16.15;;
79143;SDS011;68551;47.484;19.092;2023-04-07T16:27:50;28.65;;;17.60;;
79143;SDS011;68551;47.484;19.092;2023-04-07T16:30:53;27.73;;;18.98;;
79143;SDS011;68551;47.484;19.092;2023-04-07T16:33:58;27.40;;;16.40;;
79143;SDS011;68551;47.484;19.092;2023-04-07T16:37:03;30.33;;;17.60;;
79143;SDS011;68551;47.484;19.092;2023-04-07T16:40:06;28.13;;;17.85;;
79143;SDS011;68551;47.484;19.092;2023-04-07T16:43:15;27.70;;;17.00;;
79143;SDS011;68551;47.484;19.092;2023-04-07T16:46:25;32.72;;;17.63;;
79143;SDS011;68551;47.484;19.092;2023-04-07T16:49:31;29.02;;;16.65;;
79143;SDS011;68551;47.484;19.092;2023-04-07T16:52:33;31.40;;;19.40;;
79143;SDS011;68551;47.484;19.092;2023-04-07T16:55:38;26.92;;;16.90;;
79143;SDS011;68551;47.484;19.092;2023-04-07T16:58:40;32.80;;;18.70;;
79143;SDS011;68551;47.484;19.092;2023-04-07T17:01:43;29.73;;;17.95;;
79143;SDS011;68551;47.484;19.092;2023-04-07T17:04:47;31.15;;;17.92;;
79143;SDS011;68551;47.484;19.092;2023-04-07T17:07:50;32.22;;;17.98;;
79143;SDS011;68551;47.484;19.092;2023-04-07T17:10:52;32.70;;;18.63;;
79143;SDS011;68551;47.484;19.092;2023-04-07T17:13:54;29.65;;;19.80;;
79143;SDS011;68551;47.484;19.092;2023-04-07T17:16:58;32.03;;;19.27;;
79143;SDS011;68551;47.484;19.092;2023-04-07T17:20:01;31.13;;;18.05;;
79143;SDS011;68551;47.484;19.092;2023-04-07T17:23:04;29.88;;;17.25;;
79143;SDS011;68551;47.484;19.092;2023-04-07T17:26:09;27.02;;;17.30;;
79143;SDS011;68551;47.484;19.092;2023-04-07T17:29:14;26.00;;;17.48;;
79143;SDS011;68551;47.484;19.092;2023-04-07T17:32:17;30.05;;;16.13;;
79143;SDS011;68551;47.484;19.092;2023-04-07T17:35:22;31.02;;;18.13;;
79143;SDS011;68551;47.484;19.092;2023-04-07T17:38:27;27.52;;;15.95;;
79143;SDS011;68551;47.484;19.092;2023-04-07T17:41:32;31.23;;;18.27;;
79143;SDS011;68551;47.484;19.092;2023-04-07T17:44:42;30.45;;;18.90;;
79143;SDS011;68551;47.484;19.092;2023-04-07T17:47:47;33.60;;;19.77;;
79143;SDS011;68551;47.484;19.092;2023-04-07T17:50:54;28.35;;;16.67;;
79143;SDS011;68551;47.484;19.092;2023-04-07T17:53:58;27.02;;;16.45;;
79143;SDS011;68551;47.484;19.092;2023-04-07T17:57:05;27.30;;;16.38;;
79143;SDS011;68551;47.484;19.092;2023-04-07T18:00:14;30.27;;;17.55;;
79143;SDS011;68551;47.484;19.092;2023-04-07T18:03:17;26.85;;;16.27;;
79143;SDS011;68551;47.484;19.092;2023-04-07T18:06:22;28.88;;;16.95;;
79143;SDS011;68551;47.484;19.092;2023-04-07T18:09:25;26.98;;;16.02;;
79143;SDS011;68551;47.484;19.092;2023-04-07T18:12:28;28.40;;;16.33;;
79143;SDS011;68551;47.484;19.092;2023-04-07T18:15:33;26.20;;;16.13;;
79143;SDS011;68551;47.484;19.092;2023-04-07T18:18:37;23.83;;;15.20;;
79143;SDS011;68551;47.484;19.092;2023-04-07T18:21:42;29.23;;;16.88;;
79143;SDS011;68551;47.484;19.092;2023-04-07T18:24:55;26.92;;;16.88;;
79143;SDS011;68551;47.484;19.092;2023-04-07T18:27:58;31.25;;;19.25;;
79143;SDS011;68551;47.484;19.092;2023-04-07T18:31:06;30.85;;;18.75;;
79143;SDS011;68551;47.484;19.092;2023-04-07T18:34:11;29.90;;;18.60;;